PGT5306 EDDL-LTBJ
Flight info
| Callsign | PGT5306 |
|---|---|
| Flight time | 2h 47m |
| Altitude | 35000 |
| Route | DODEN7Z DODEN Y853 BOMBI DCT DETEV DCT DINKU DCT BESNI DCT LATLO DCT OBEDI DCT CEPRA DCT PODET DCT NOVLO DCT YULHU DCT VABEK UL603 OLOTA DCT RUGAS DCT PEREN DCT LMO UN127 RIKSO |
| Aircraft | A21N/M-SDE2E3FGHIRWXY/LB1 |
Departure
| Time | 2026-05-07 15:26 |
|---|---|
| Airport | Düsseldorf Airport (EDDL) |
Arrival
| Time | 2026-05-07 18:13 |
|---|---|
| Airport | Adnan Menderes International Airport (LTBJ) |
| Time | Latitude | Longitude | Altitude | Speed | Heading |
|---|---|---|---|---|---|
| 2026-05-07 14:39 | 51.27608 | 6.76288 | 134 ft | 0 kts | 8° |
| 2026-05-07 15:11 | 51.27600 | 6.76286 | 134 ft | 4 kts | 8° |
| 2026-05-07 15:12 | 51.27566 | 6.76278 | 136 ft | 2 kts | 8° |
| 2026-05-07 15:12 | 51.27543 | 6.76269 | 135 ft | 4 kts | 28° |
| 2026-05-07 15:12 | 51.27529 | 6.76252 | 135 ft | 4 kts | 51° |
| 2026-05-07 15:12 | 51.27517 | 6.76216 | 136 ft | 4 kts | 75° |
| 2026-05-07 15:13 | 51.27512 | 6.76174 | 136 ft | 4 kts | 78° |
| 2026-05-07 15:13 | 51.27505 | 6.76138 | 136 ft | 4 kts | 69° |
| 2026-05-07 15:13 | 51.27495 | 6.76098 | 136 ft | 4 kts | 69° |
| 2026-05-07 15:13 | 51.27486 | 6.76058 | 136 ft | 4 kts | 69° |
| 2026-05-07 15:14 | 51.27478 | 6.76024 | 136 ft | 1 kts | 69° |
| 2026-05-07 15:19 | 51.27478 | 6.76027 | 136 ft | 2 kts | 69° |
| 2026-05-07 15:19 | 51.27487 | 6.76062 | 136 ft | 5 kts | 69° |
| 2026-05-07 15:19 | 51.27511 | 6.76112 | 136 ft | 7 kts | 8° |
| 2026-05-07 15:20 | 51.27566 | 6.76090 | 136 ft | 9 kts | 332° |
| 2026-05-07 15:20 | 51.27632 | 6.76047 | 136 ft | 11 kts | 350° |
| 2026-05-07 15:20 | 51.27718 | 6.76044 | 135 ft | 13 kts | 2° |
| 2026-05-07 15:20 | 51.27814 | 6.76042 | 134 ft | 15 kts | 334° |
| 2026-05-07 15:21 | 51.27846 | 6.75890 | 134 ft | 16 kts | 269° |
| 2026-05-07 15:21 | 51.27853 | 6.75828 | 134 ft | 5 kts | 281° |
| 2026-05-07 15:21 | 51.27861 | 6.75758 | 134 ft | 8 kts | 275° |
| 2026-05-07 15:21 | 51.27864 | 6.75686 | 134 ft | 4 kts | 272° |
| 2026-05-07 15:22 | 51.27872 | 6.75638 | 134 ft | 5 kts | 293° |
| 2026-05-07 15:22 | 51.27896 | 6.75584 | 134 ft | 8 kts | 279° |
| 2026-05-07 15:22 | 51.27881 | 6.75497 | 133 ft | 9 kts | 232° |
| 2026-05-07 15:22 | 51.27836 | 6.75407 | 131 ft | 11 kts | 232° |
| 2026-05-07 15:23 | 51.27878 | 6.75316 | 128 ft | 3 kts | 342° |
| 2026-05-07 15:23 | 51.27877 | 6.75317 | 128 ft | 0 kts | 345° |
| 2026-05-07 15:23 | 51.27875 | 6.75317 | 128 ft | 0 kts | 345° |
| 2026-05-07 15:23 | 51.27884 | 6.75313 | 127 ft | 3 kts | 340° |
| 2026-05-07 15:24 | 51.27933 | 6.75280 | 129 ft | 9 kts | 341° |
| 2026-05-07 15:24 | 51.28000 | 6.75299 | 127 ft | 12 kts | 69° |
| 2026-05-07 15:24 | 51.28057 | 6.75411 | 131 ft | 14 kts | 53° |
| 2026-05-07 15:24 | 51.28123 | 6.75542 | 133 ft | 16 kts | 53° |
| 2026-05-07 15:25 | 51.28219 | 6.75741 | 134 ft | 46 kts | 52° |
| 2026-05-07 15:25 | 51.28562 | 6.76473 | 134 ft | 115 kts | 52° |
| 2026-05-07 15:25 | 51.29154 | 6.77712 | 215 ft | 154 kts | 54° |
| 2026-05-07 15:25 | 51.29360 | 6.78166 | 487 ft | 146 kts | 55° |
| 2026-05-07 15:26 | 51.29892 | 6.79423 | 1194 ft | 141 kts | 53° |
| 2026-05-07 15:26 | 51.30576 | 6.80750 | 1535 ft | 169 kts | 48° |
| 2026-05-07 15:26 | 51.31366 | 6.82283 | 2093 ft | 189 kts | 50° |
| 2026-05-07 15:26 | 51.32196 | 6.84056 | 2728 ft | 208 kts | 52° |
| 2026-05-07 15:27 | 51.33099 | 6.86025 | 3282 ft | 231 kts | 52° |
| 2026-05-07 15:27 | 51.34092 | 6.88217 | 3829 ft | 251 kts | 53° |
| 2026-05-07 15:27 | 51.34999 | 6.90635 | 4633 ft | 261 kts | 66° |
| 2026-05-07 15:27 | 51.35279 | 6.93529 | 5564 ft | 267 kts | 92° |
| 2026-05-07 15:28 | 51.35015 | 6.96454 | 6523 ft | 270 kts | 99° |
| 2026-05-07 15:28 | 51.34671 | 6.99454 | 7407 ft | 275 kts | 99° |
| 2026-05-07 15:28 | 51.34336 | 7.02512 | 8301 ft | 280 kts | 99° |
| 2026-05-07 15:28 | 51.34013 | 7.05575 | 9188 ft | 286 kts | 99° |
| 2026-05-07 15:29 | 51.33685 | 7.08740 | 10104 ft | 290 kts | 99° |
| 2026-05-07 15:29 | 51.33342 | 7.12046 | 10587 ft | 312 kts | 99° |
| 2026-05-07 15:29 | 51.32895 | 7.15532 | 10925 ft | 335 kts | 107° |
| 2026-05-07 15:29 | 51.31859 | 7.19013 | 11233 ft | 356 kts | 125° |
| 2026-05-07 15:30 | 51.30161 | 7.22052 | 11609 ft | 374 kts | 136° |
| 2026-05-07 15:30 | 51.28278 | 7.24947 | 12228 ft | 382 kts | 137° |
| 2026-05-07 15:30 | 51.26347 | 7.27917 | 13031 ft | 385 kts | 136° |
| 2026-05-07 15:30 | 51.24405 | 7.30939 | 13767 ft | 391 kts | 136° |
| 2026-05-07 15:31 | 51.22480 | 7.33952 | 14420 ft | 394 kts | 136° |
| 2026-05-07 15:31 | 51.20507 | 7.37052 | 15059 ft | 397 kts | 136° |
| 2026-05-07 15:31 | 51.18523 | 7.40174 | 15667 ft | 401 kts | 136° |
| 2026-05-07 15:31 | 51.16544 | 7.43285 | 16267 ft | 404 kts | 136° |
| 2026-05-07 15:32 | 51.14512 | 7.46455 | 16884 ft | 407 kts | 137° |
| 2026-05-07 15:32 | 51.12483 | 7.49561 | 17478 ft | 410 kts | 137° |
| 2026-05-07 15:32 | 51.10412 | 7.52720 | 18052 ft | 413 kts | 137° |
| 2026-05-07 15:32 | 51.08317 | 7.55910 | 18580 ft | 416 kts | 137° |
| 2026-05-07 15:33 | 51.06210 | 7.59115 | 19076 ft | 419 kts | 137° |
| 2026-05-07 15:33 | 51.04097 | 7.62328 | 19560 ft | 422 kts | 137° |
| 2026-05-07 15:33 | 51.01990 | 7.65534 | 20039 ft | 425 kts | 137° |
| 2026-05-07 15:33 | 50.99834 | 7.68810 | 20498 ft | 428 kts | 137° |
| 2026-05-07 15:34 | 50.97680 | 7.72061 | 20991 ft | 431 kts | 139° |
| 2026-05-07 15:34 | 50.95299 | 7.74999 | 21452 ft | 433 kts | 148° |
| 2026-05-07 15:34 | 50.92736 | 7.77558 | 21935 ft | 436 kts | 149° |
| 2026-05-07 15:34 | 50.90175 | 7.80060 | 22413 ft | 438 kts | 149° |
| 2026-05-07 15:35 | 50.87562 | 7.82608 | 22900 ft | 442 kts | 149° |
| 2026-05-07 15:35 | 50.84928 | 7.85187 | 23378 ft | 445 kts | 149° |
| 2026-05-07 15:35 | 50.82309 | 7.87759 | 23804 ft | 448 kts | 149° |
| 2026-05-07 15:35 | 50.79642 | 7.90376 | 24247 ft | 451 kts | 149° |
| 2026-05-07 15:36 | 50.76966 | 7.92996 | 24673 ft | 454 kts | 149° |
| 2026-05-07 15:36 | 50.74258 | 7.95640 | 25102 ft | 456 kts | 149° |
| 2026-05-07 15:36 | 50.71582 | 7.98250 | 25515 ft | 459 kts | 149° |
| 2026-05-07 15:36 | 50.68841 | 8.00920 | 25935 ft | 462 kts | 149° |
| 2026-05-07 15:37 | 50.66085 | 8.03602 | 26346 ft | 465 kts | 149° |
| 2026-05-07 15:37 | 50.63347 | 8.06268 | 26767 ft | 467 kts | 149° |
| 2026-05-07 15:37 | 50.60594 | 8.09003 | 27309 ft | 466 kts | 146° |
| 2026-05-07 15:37 | 50.58037 | 8.12142 | 27787 ft | 466 kts | 141° |
| 2026-05-07 15:38 | 50.55578 | 8.15381 | 28262 ft | 465 kts | 140° |
| 2026-05-07 15:38 | 50.53085 | 8.18668 | 28769 ft | 464 kts | 141° |
| 2026-05-07 15:38 | 50.50597 | 8.21940 | 29234 ft | 463 kts | 141° |
| 2026-05-07 15:38 | 50.48156 | 8.25136 | 29745 ft | 462 kts | 141° |
| 2026-05-07 15:39 | 50.45678 | 8.28371 | 30214 ft | 461 kts | 141° |
| 2026-05-07 15:39 | 50.43197 | 8.31588 | 30617 ft | 461 kts | 141° |
| 2026-05-07 15:39 | 50.40727 | 8.34790 | 31009 ft | 460 kts | 141° |
| 2026-05-07 15:39 | 50.38286 | 8.37955 | 31421 ft | 459 kts | 141° |
| 2026-05-07 15:40 | 50.35834 | 8.41138 | 31803 ft | 458 kts | 141° |
| 2026-05-07 15:40 | 50.33357 | 8.44355 | 32162 ft | 459 kts | 141° |
| 2026-05-07 15:40 | 50.30914 | 8.47523 | 32501 ft | 459 kts | 141° |
| 2026-05-07 15:40 | 50.28440 | 8.50722 | 32848 ft | 459 kts | 141° |
| 2026-05-07 15:41 | 50.25978 | 8.53905 | 33191 ft | 459 kts | 141° |
| 2026-05-07 15:41 | 50.23518 | 8.57088 | 33530 ft | 459 kts | 141° |
| 2026-05-07 15:41 | 50.21086 | 8.60229 | 33856 ft | 458 kts | 141° |
| 2026-05-07 15:41 | 50.18619 | 8.63414 | 34144 ft | 458 kts | 141° |
| 2026-05-07 15:42 | 50.16153 | 8.66582 | 34395 ft | 458 kts | 141° |
| 2026-05-07 15:42 | 50.13682 | 8.69750 | 34647 ft | 458 kts | 141° |
| 2026-05-07 15:42 | 50.11256 | 8.72858 | 34885 ft | 458 kts | 141° |
| 2026-05-07 15:42 | 50.08786 | 8.76020 | 35062 ft | 459 kts | 141° |
| 2026-05-07 15:43 | 50.04552 | 8.83438 | 35081 ft | 460 kts | 120° |
| 2026-05-07 15:43 | 50.01769 | 8.92374 | 35068 ft | 461 kts | 115° |
| 2026-05-07 15:44 | 49.99007 | 9.01395 | 35063 ft | 461 kts | 116° |
| 2026-05-07 15:44 | 49.96222 | 9.10318 | 35060 ft | 461 kts | 116° |
| 2026-05-07 15:45 | 49.93418 | 9.19248 | 35056 ft | 461 kts | 116° |
| 2026-05-07 15:45 | 49.90603 | 9.28192 | 35058 ft | 461 kts | 116° |
| 2026-05-07 15:46 | 49.86329 | 9.41618 | 35052 ft | 461 kts | 117° |
| 2026-05-07 15:47 | 49.83485 | 9.50485 | 35044 ft | 461 kts | 118° |
| 2026-05-07 15:47 | 49.81765 | 9.54689 | 35047 ft | 460 kts | 129° |
| 2026-05-07 15:47 | 49.79624 | 9.58271 | 35050 ft | 459 kts | 137° |
| 2026-05-07 15:48 | 49.74921 | 9.64993 | 35054 ft | 459 kts | 139° |
| 2026-05-07 15:48 | 49.70261 | 9.71687 | 35053 ft | 459 kts | 138° |
| 2026-05-07 15:49 | 49.65614 | 9.78403 | 35049 ft | 459 kts | 138° |
| 2026-05-07 15:49 | 49.60923 | 9.85161 | 35052 ft | 459 kts | 138° |
| 2026-05-07 15:50 | 49.56280 | 9.91840 | 35049 ft | 459 kts | 138° |
| 2026-05-07 15:50 | 49.51597 | 9.98558 | 35050 ft | 459 kts | 139° |
| 2026-05-07 15:51 | 49.46925 | 10.05237 | 35050 ft | 459 kts | 139° |
| 2026-05-07 15:51 | 49.42227 | 10.11928 | 35052 ft | 459 kts | 139° |
| 2026-05-07 15:52 | 49.37556 | 10.18573 | 35054 ft | 459 kts | 139° |
| 2026-05-07 15:52 | 49.32869 | 10.25213 | 35058 ft | 459 kts | 139° |
| 2026-05-07 15:53 | 49.28160 | 10.31872 | 35046 ft | 460 kts | 139° |
| 2026-05-07 15:53 | 49.23467 | 10.38502 | 35067 ft | 461 kts | 138° |
| 2026-05-07 15:54 | 49.18849 | 10.45367 | 35077 ft | 462 kts | 137° |
| 2026-05-07 15:54 | 49.14250 | 10.52207 | 35086 ft | 462 kts | 137° |
| 2026-05-07 15:55 | 49.09655 | 10.59013 | 35083 ft | 461 kts | 137° |
| 2026-05-07 15:55 | 49.05063 | 10.65798 | 35078 ft | 461 kts | 138° |
| 2026-05-07 15:56 | 49.00426 | 10.72636 | 35069 ft | 462 kts | 138° |
| 2026-05-07 15:56 | 48.95811 | 10.79410 | 35064 ft | 462 kts | 138° |
| 2026-05-07 15:57 | 48.91187 | 10.86189 | 35057 ft | 462 kts | 138° |
| 2026-05-07 15:57 | 48.86539 | 10.92979 | 35036 ft | 462 kts | 138° |
| 2026-05-07 15:58 | 48.81929 | 10.99702 | 35028 ft | 462 kts | 139° |
| 2026-05-07 15:58 | 48.77273 | 11.06466 | 35023 ft | 462 kts | 139° |
| 2026-05-07 15:59 | 48.72631 | 11.13194 | 35022 ft | 463 kts | 139° |
| 2026-05-07 15:59 | 48.68746 | 11.18810 | 35029 ft | 463 kts | 139° |
| 2026-05-07 16:00 | 48.64120 | 11.25567 | 35022 ft | 464 kts | 136° |
| 2026-05-07 16:00 | 48.59769 | 11.32781 | 35028 ft | 464 kts | 134° |
| 2026-05-07 16:01 | 48.55416 | 11.40014 | 35028 ft | 463 kts | 135° |
| 2026-05-07 16:01 | 48.51098 | 11.47173 | 35025 ft | 463 kts | 135° |
| 2026-05-07 16:02 | 48.46756 | 11.54360 | 35021 ft | 464 kts | 135° |
| 2026-05-07 16:02 | 48.42374 | 11.61576 | 35026 ft | 464 kts | 135° |
| 2026-05-07 16:03 | 48.38027 | 11.68723 | 35026 ft | 464 kts | 135° |
| 2026-05-07 16:03 | 48.33679 | 11.75863 | 35026 ft | 464 kts | 135° |
| 2026-05-07 16:04 | 48.29304 | 11.83020 | 35028 ft | 464 kts | 135° |
| 2026-05-07 16:04 | 48.24935 | 11.90140 | 35025 ft | 464 kts | 135° |
| 2026-05-07 16:05 | 48.20542 | 11.97288 | 35025 ft | 464 kts | 135° |
| 2026-05-07 16:05 | 48.16167 | 12.04380 | 35016 ft | 464 kts | 136° |
| 2026-05-07 16:06 | 48.11781 | 12.11450 | 35023 ft | 463 kts | 136° |
| 2026-05-07 16:06 | 48.07414 | 12.18483 | 35025 ft | 463 kts | 136° |
| 2026-05-07 16:07 | 48.03029 | 12.25538 | 35025 ft | 463 kts | 136° |
| 2026-05-07 16:07 | 47.98633 | 12.32603 | 35012 ft | 463 kts | 136° |
| 2026-05-07 16:08 | 47.94244 | 12.39638 | 35021 ft | 465 kts | 136° |
| 2026-05-07 16:08 | 47.89804 | 12.46707 | 35023 ft | 465 kts | 136° |
| 2026-05-07 16:09 | 47.85384 | 12.53728 | 35026 ft | 465 kts | 136° |
| 2026-05-07 16:09 | 47.80951 | 12.60757 | 35027 ft | 465 kts | 136° |
| 2026-05-07 16:10 | 47.76534 | 12.67749 | 35027 ft | 465 kts | 136° |
| 2026-05-07 16:10 | 47.72113 | 12.74726 | 35008 ft | 464 kts | 137° |
| 2026-05-07 16:11 | 47.67660 | 12.81669 | 35016 ft | 464 kts | 138° |
| 2026-05-07 16:11 | 47.63078 | 12.88470 | 35034 ft | 464 kts | 139° |
| 2026-05-07 16:12 | 47.58525 | 12.95208 | 35021 ft | 464 kts | 139° |
| 2026-05-07 16:12 | 47.53963 | 13.01949 | 35019 ft | 464 kts | 139° |
| 2026-05-07 16:13 | 47.49379 | 13.08698 | 35013 ft | 463 kts | 139° |
| 2026-05-07 16:13 | 47.44810 | 13.15403 | 35015 ft | 465 kts | 139° |
| 2026-05-07 16:14 | 47.40199 | 13.22146 | 35016 ft | 465 kts | 139° |
| 2026-05-07 16:14 | 47.35607 | 13.28843 | 35013 ft | 465 kts | 139° |
| 2026-05-07 16:15 | 47.31265 | 13.35976 | 35014 ft | 470 kts | 130° |
| 2026-05-07 16:15 | 47.27454 | 13.43767 | 35010 ft | 470 kts | 130° |
| 2026-05-07 16:16 | 47.23616 | 13.51578 | 35004 ft | 471 kts | 130° |
| 2026-05-07 16:16 | 47.19753 | 13.59397 | 34990 ft | 471 kts | 130° |
| 2026-05-07 16:17 | 47.15894 | 13.67174 | 34996 ft | 473 kts | 130° |
| 2026-05-07 16:17 | 47.12028 | 13.74955 | 34980 ft | 472 kts | 130° |
| 2026-05-07 16:18 | 47.08139 | 13.82749 | 34975 ft | 471 kts | 130° |
| 2026-05-07 16:18 | 47.04278 | 13.90479 | 34974 ft | 470 kts | 130° |
| 2026-05-07 16:19 | 47.00404 | 13.98187 | 34953 ft | 470 kts | 131° |
| 2026-05-07 16:19 | 46.96532 | 14.05897 | 34920 ft | 471 kts | 131° |
| 2026-05-07 16:20 | 46.92641 | 14.13616 | 34939 ft | 469 kts | 131° |
| 2026-05-07 16:20 | 46.88754 | 14.21297 | 34920 ft | 472 kts | 131° |
| 2026-05-07 16:21 | 46.84856 | 14.28984 | 34922 ft | 471 kts | 131° |
| 2026-05-07 16:21 | 46.80924 | 14.36712 | 34930 ft | 472 kts | 131° |
| 2026-05-07 16:22 | 46.77019 | 14.44380 | 34922 ft | 469 kts | 132° |
| 2026-05-07 16:22 | 46.73140 | 14.51958 | 34927 ft | 468 kts | 132° |
| 2026-05-07 16:23 | 46.69220 | 14.59603 | 34926 ft | 469 kts | 132° |
| 2026-05-07 16:23 | 46.65325 | 14.67186 | 34920 ft | 469 kts | 132° |
| 2026-05-07 16:24 | 46.61406 | 14.74784 | 34896 ft | 470 kts | 133° |
| 2026-05-07 16:24 | 46.57483 | 14.82367 | 34912 ft | 470 kts | 133° |
| 2026-05-07 16:25 | 46.53557 | 14.89947 | 34904 ft | 470 kts | 133° |
| 2026-05-07 16:25 | 46.49602 | 14.97556 | 34906 ft | 470 kts | 133° |
| 2026-05-07 16:26 | 46.45668 | 15.05079 | 34880 ft | 470 kts | 133° |
| 2026-05-07 16:26 | 46.41733 | 15.12597 | 34910 ft | 467 kts | 133° |
| 2026-05-07 16:27 | 46.37804 | 15.20103 | 34919 ft | 468 kts | 132° |
| 2026-05-07 16:27 | 46.34040 | 15.27832 | 34926 ft | 472 kts | 131° |
| 2026-05-07 16:28 | 46.30277 | 15.35607 | 34925 ft | 472 kts | 131° |
| 2026-05-07 16:28 | 46.26498 | 15.43399 | 34921 ft | 470 kts | 131° |
| 2026-05-07 16:29 | 46.22742 | 15.51101 | 34944 ft | 470 kts | 131° |
| 2026-05-07 16:29 | 46.18967 | 15.58825 | 34949 ft | 470 kts | 131° |
| 2026-05-07 16:30 | 46.14835 | 15.65993 | 34956 ft | 461 kts | 141° |
| 2026-05-07 16:30 | 46.10309 | 15.72521 | 34960 ft | 461 kts | 142° |
| 2026-05-07 16:31 | 46.05765 | 15.79021 | 34955 ft | 463 kts | 142° |
| 2026-05-07 16:31 | 46.01176 | 15.85584 | 34962 ft | 464 kts | 142° |
| 2026-05-07 16:32 | 45.96622 | 15.92103 | 34964 ft | 464 kts | 142° |
| 2026-05-07 16:32 | 45.92039 | 15.98652 | 34952 ft | 464 kts | 142° |
| 2026-05-07 16:33 | 45.87436 | 16.05193 | 34989 ft | 464 kts | 142° |
| 2026-05-07 16:33 | 45.82859 | 16.11692 | 34994 ft | 464 kts | 142° |
| 2026-05-07 16:34 | 45.78253 | 16.18207 | 34989 ft | 465 kts | 142° |
| 2026-05-07 16:34 | 45.73642 | 16.24717 | 34992 ft | 465 kts | 142° |
| 2026-05-07 16:35 | 45.69035 | 16.31207 | 34973 ft | 465 kts | 142° |
| 2026-05-07 16:35 | 45.64430 | 16.37679 | 34981 ft | 465 kts | 142° |
| 2026-05-07 16:36 | 45.59808 | 16.44153 | 34992 ft | 465 kts | 142° |
| 2026-05-07 16:36 | 45.55219 | 16.50578 | 34988 ft | 465 kts | 142° |
| 2026-05-07 16:37 | 45.50580 | 16.57052 | 34986 ft | 465 kts | 142° |
| 2026-05-07 16:37 | 45.45950 | 16.63485 | 34990 ft | 465 kts | 142° |
| 2026-05-07 16:38 | 45.41352 | 16.69879 | 35001 ft | 465 kts | 142° |
| 2026-05-07 16:38 | 45.36704 | 16.76299 | 35003 ft | 465 kts | 142° |
| 2026-05-07 16:39 | 45.32058 | 16.82726 | 34998 ft | 465 kts | 142° |
| 2026-05-07 16:39 | 45.27433 | 16.89107 | 34990 ft | 465 kts | 142° |
| 2026-05-07 16:40 | 45.22816 | 16.95569 | 35002 ft | 469 kts | 137° |
| 2026-05-07 16:40 | 45.18679 | 17.02755 | 35009 ft | 472 kts | 134° |
| 2026-05-07 16:41 | 45.14559 | 17.10022 | 35010 ft | 472 kts | 135° |
| 2026-05-07 16:41 | 45.10442 | 17.17242 | 35005 ft | 472 kts | 135° |
| 2026-05-07 16:42 | 45.06311 | 17.24447 | 35011 ft | 473 kts | 135° |
| 2026-05-07 16:42 | 45.02151 | 17.31701 | 35004 ft | 473 kts | 134° |
| 2026-05-07 16:43 | 44.98015 | 17.38885 | 35021 ft | 473 kts | 135° |
| 2026-05-07 16:43 | 44.93851 | 17.46106 | 35014 ft | 472 kts | 134° |
| 2026-05-07 16:44 | 44.89719 | 17.53255 | 35018 ft | 472 kts | 134° |
| 2026-05-07 16:44 | 44.85571 | 17.60390 | 35017 ft | 472 kts | 135° |
| 2026-05-07 16:45 | 44.81423 | 17.67539 | 35015 ft | 472 kts | 134° |
| 2026-05-07 16:45 | 44.77958 | 17.73514 | 34996 ft | 471 kts | 134° |
| 2026-05-07 16:46 | 44.73806 | 17.80627 | 35012 ft | 472 kts | 134° |
| 2026-05-07 16:46 | 44.69617 | 17.87786 | 35016 ft | 472 kts | 134° |
| 2026-05-07 16:47 | 44.65457 | 17.94881 | 35009 ft | 472 kts | 134° |
| 2026-05-07 16:47 | 44.61259 | 18.02015 | 34999 ft | 472 kts | 134° |
| 2026-05-07 16:48 | 44.57085 | 18.09093 | 35003 ft | 472 kts | 134° |
| 2026-05-07 16:48 | 44.52912 | 18.16152 | 35011 ft | 472 kts | 135° |
| 2026-05-07 16:49 | 44.48696 | 18.23264 | 35010 ft | 473 kts | 135° |
| 2026-05-07 16:49 | 44.44490 | 18.30350 | 34990 ft | 474 kts | 135° |
| 2026-05-07 16:50 | 44.40273 | 18.37430 | 35014 ft | 474 kts | 135° |
| 2026-05-07 16:50 | 44.36049 | 18.44507 | 35019 ft | 475 kts | 135° |
| 2026-05-07 16:51 | 44.31805 | 18.51603 | 35026 ft | 475 kts | 135° |
| 2026-05-07 16:51 | 44.27576 | 18.58634 | 35026 ft | 474 kts | 135° |
| 2026-05-07 16:52 | 44.23304 | 18.65689 | 35030 ft | 474 kts | 135° |
| 2026-05-07 16:52 | 44.19058 | 18.72689 | 35020 ft | 476 kts | 135° |
| 2026-05-07 16:53 | 44.14785 | 18.79740 | 35032 ft | 476 kts | 135° |
| 2026-05-07 16:53 | 44.10519 | 18.86757 | 35016 ft | 477 kts | 135° |
| 2026-05-07 16:54 | 44.06211 | 18.93828 | 35025 ft | 477 kts | 135° |
| 2026-05-07 16:54 | 44.01925 | 19.00833 | 35034 ft | 477 kts | 135° |
| 2026-05-07 16:55 | 43.97611 | 19.07878 | 35022 ft | 477 kts | 135° |
| 2026-05-07 16:55 | 43.93307 | 19.14869 | 35022 ft | 478 kts | 135° |
| 2026-05-07 16:56 | 43.88969 | 19.21905 | 35026 ft | 478 kts | 135° |
| 2026-05-07 16:56 | 43.82469 | 19.32415 | 35034 ft | 479 kts | 135° |
| 2026-05-07 16:57 | 43.78142 | 19.39407 | 35032 ft | 479 kts | 135° |
| 2026-05-07 16:57 | 43.73801 | 19.46381 | 35026 ft | 479 kts | 135° |
| 2026-05-07 16:58 | 43.71309 | 19.50378 | 35031 ft | 480 kts | 135° |
| 2026-05-07 17:02 | 43.69986 | 19.52495 | 35036 ft | 480 kts | 135° |
| 2026-05-07 17:03 | 43.65622 | 19.59491 | 35033 ft | 480 kts | 135° |
| 2026-05-07 17:03 | 43.61264 | 19.66455 | 35037 ft | 480 kts | 135° |
| 2026-05-07 17:04 | 43.56914 | 19.73389 | 35033 ft | 480 kts | 135° |
| 2026-05-07 17:04 | 43.52520 | 19.80363 | 35036 ft | 481 kts | 135° |
| 2026-05-07 17:05 | 43.48151 | 19.87314 | 35039 ft | 480 kts | 135° |
| 2026-05-07 17:05 | 43.43750 | 19.94264 | 35039 ft | 480 kts | 135° |
| 2026-05-07 17:06 | 43.39367 | 20.01179 | 35037 ft | 481 kts | 135° |
| 2026-05-07 17:06 | 43.34977 | 20.08090 | 35050 ft | 481 kts | 135° |
| 2026-05-07 17:07 | 43.30582 | 20.15006 | 35052 ft | 481 kts | 135° |
| 2026-05-07 17:07 | 43.26176 | 20.21906 | 35046 ft | 481 kts | 135° |
| 2026-05-07 17:08 | 43.21778 | 20.28773 | 35063 ft | 480 kts | 135° |
| 2026-05-07 17:08 | 43.17363 | 20.35674 | 35071 ft | 480 kts | 135° |
| 2026-05-07 17:09 | 43.12965 | 20.42531 | 35054 ft | 481 kts | 135° |
| 2026-05-07 17:09 | 43.08522 | 20.49440 | 35058 ft | 482 kts | 135° |
| 2026-05-07 17:10 | 43.04088 | 20.56299 | 35070 ft | 482 kts | 135° |
| 2026-05-07 17:10 | 42.99584 | 20.63070 | 35075 ft | 481 kts | 139° |
| 2026-05-07 17:11 | 42.94768 | 20.69363 | 35082 ft | 480 kts | 140° |
| 2026-05-07 17:11 | 42.89920 | 20.75693 | 35091 ft | 480 kts | 140° |
| 2026-05-07 17:12 | 42.85104 | 20.81966 | 35093 ft | 480 kts | 140° |
| 2026-05-07 17:12 | 42.80302 | 20.88208 | 35094 ft | 479 kts | 140° |
| 2026-05-07 17:13 | 42.75468 | 20.94473 | 35089 ft | 478 kts | 140° |
| 2026-05-07 17:13 | 42.70662 | 21.00699 | 35091 ft | 478 kts | 140° |
| 2026-05-07 17:14 | 42.65845 | 21.06930 | 35084 ft | 479 kts | 140° |
| 2026-05-07 17:14 | 42.60996 | 21.13169 | 35067 ft | 482 kts | 140° |
| 2026-05-07 17:15 | 42.56128 | 21.19424 | 35078 ft | 483 kts | 140° |
| 2026-05-07 17:15 | 42.51234 | 21.25706 | 35095 ft | 483 kts | 140° |
| 2026-05-07 17:16 | 42.46361 | 21.31940 | 35093 ft | 483 kts | 140° |
| 2026-05-07 17:16 | 42.41480 | 21.38178 | 35103 ft | 482 kts | 140° |
| 2026-05-07 17:17 | 42.36619 | 21.44370 | 35092 ft | 483 kts | 140° |
| 2026-05-07 17:17 | 42.31698 | 21.50621 | 35105 ft | 486 kts | 140° |
| 2026-05-07 17:18 | 42.26746 | 21.56904 | 35115 ft | 486 kts | 140° |
| 2026-05-07 17:18 | 42.21854 | 21.63171 | 35117 ft | 487 kts | 139° |
| 2026-05-07 17:19 | 42.17020 | 21.69595 | 35096 ft | 487 kts | 139° |
| 2026-05-07 17:19 | 42.12210 | 21.75985 | 35092 ft | 487 kts | 139° |
| 2026-05-07 17:20 | 42.07345 | 21.82429 | 35083 ft | 490 kts | 139° |
| 2026-05-07 17:20 | 42.02494 | 21.88836 | 35096 ft | 491 kts | 139° |
| 2026-05-07 17:21 | 41.97600 | 21.95284 | 35105 ft | 491 kts | 139° |
| 2026-05-07 17:21 | 41.92750 | 22.01655 | 35111 ft | 491 kts | 139° |
| 2026-05-07 17:22 | 41.87861 | 22.08065 | 35121 ft | 491 kts | 139° |
| 2026-05-07 17:22 | 41.82955 | 22.14491 | 35110 ft | 493 kts | 139° |
| 2026-05-07 17:23 | 41.78037 | 22.20918 | 35125 ft | 496 kts | 139° |
| 2026-05-07 17:23 | 41.73088 | 22.27385 | 35123 ft | 496 kts | 140° |
| 2026-05-07 17:24 | 41.68156 | 22.33791 | 35129 ft | 496 kts | 140° |
| 2026-05-07 17:24 | 41.63211 | 22.40214 | 35129 ft | 495 kts | 140° |
| 2026-05-07 17:25 | 41.58273 | 22.46600 | 35135 ft | 495 kts | 140° |
| 2026-05-07 17:25 | 41.53297 | 22.53024 | 35125 ft | 500 kts | 140° |
| 2026-05-07 17:26 | 41.48262 | 22.59507 | 35148 ft | 502 kts | 140° |
| 2026-05-07 17:26 | 41.43243 | 22.65952 | 35139 ft | 502 kts | 140° |
| 2026-05-07 17:27 | 41.38206 | 22.72414 | 35149 ft | 501 kts | 140° |
| 2026-05-07 17:27 | 41.33206 | 22.78872 | 35133 ft | 502 kts | 137° |
| 2026-05-07 17:28 | 41.28736 | 22.85997 | 35131 ft | 507 kts | 132° |
| 2026-05-07 17:28 | 41.24262 | 22.93326 | 35137 ft | 508 kts | 132° |
| 2026-05-07 17:29 | 41.19811 | 23.00581 | 35137 ft | 508 kts | 132° |
| 2026-05-07 17:29 | 41.15363 | 23.07802 | 35132 ft | 508 kts | 132° |
| 2026-05-07 17:30 | 41.10865 | 23.15063 | 35135 ft | 506 kts | 132° |
| 2026-05-07 17:30 | 41.06414 | 23.22255 | 35129 ft | 505 kts | 132° |
| 2026-05-07 17:31 | 41.01968 | 23.29422 | 35123 ft | 505 kts | 132° |
| 2026-05-07 17:31 | 40.98236 | 23.35423 | 35108 ft | 510 kts | 132° |
| 2026-05-07 17:32 | 40.93699 | 23.42711 | 35121 ft | 515 kts | 132° |
| 2026-05-07 17:32 | 40.89189 | 23.49923 | 35114 ft | 505 kts | 132° |
| 2026-05-07 17:33 | 40.84690 | 23.57106 | 35119 ft | 506 kts | 132° |
| 2026-05-07 17:33 | 40.80204 | 23.64252 | 35118 ft | 506 kts | 132° |
| 2026-05-07 17:34 | 40.75692 | 23.71424 | 35112 ft | 507 kts | 132° |
| 2026-05-07 17:34 | 40.71181 | 23.78585 | 35116 ft | 504 kts | 132° |
| 2026-05-07 17:35 | 40.66696 | 23.85688 | 35100 ft | 510 kts | 132° |
| 2026-05-07 17:35 | 40.62155 | 23.92854 | 35110 ft | 512 kts | 132° |
| 2026-05-07 17:36 | 40.57806 | 24.00323 | 35112 ft | 514 kts | 126° |
| 2026-05-07 17:36 | 40.53769 | 24.08025 | 35121 ft | 513 kts | 126° |
| 2026-05-07 17:37 | 40.49757 | 24.15677 | 35112 ft | 507 kts | 126° |
| 2026-05-07 17:37 | 40.45730 | 24.23321 | 35110 ft | 507 kts | 126° |
| 2026-05-07 17:38 | 40.41731 | 24.30902 | 35111 ft | 507 kts | 126° |
| 2026-05-07 17:38 | 40.37690 | 24.38547 | 35108 ft | 508 kts | 126° |
| 2026-05-07 17:39 | 40.33706 | 24.46049 | 35098 ft | 505 kts | 126° |
| 2026-05-07 17:39 | 40.29658 | 24.53661 | 35114 ft | 507 kts | 126° |
| 2026-05-07 17:40 | 40.25634 | 24.61221 | 35117 ft | 508 kts | 126° |
| 2026-05-07 17:40 | 40.21605 | 24.68765 | 35117 ft | 508 kts | 126° |
| 2026-05-07 17:41 | 40.17535 | 24.76363 | 35118 ft | 508 kts | 126° |
| 2026-05-07 17:41 | 40.13485 | 24.83901 | 35118 ft | 508 kts | 126° |
| 2026-05-07 17:42 | 40.09415 | 24.91476 | 35118 ft | 509 kts | 127° |
| 2026-05-07 17:42 | 40.05349 | 24.99000 | 35116 ft | 509 kts | 126° |
| 2026-05-07 17:43 | 40.01325 | 25.06457 | 35118 ft | 498 kts | 127° |
| 2026-05-07 17:43 | 39.97324 | 25.13833 | 35109 ft | 496 kts | 127° |
| 2026-05-07 17:44 | 39.93354 | 25.21132 | 35114 ft | 496 kts | 128° |
| 2026-05-07 17:44 | 39.88626 | 25.27614 | 35117 ft | 491 kts | 142° |
| 2026-05-07 17:45 | 39.83468 | 25.33405 | 35125 ft | 491 kts | 142° |
| 2026-05-07 17:45 | 39.78333 | 25.39193 | 35124 ft | 485 kts | 142° |
| 2026-05-07 17:46 | 39.73256 | 25.44943 | 35121 ft | 486 kts | 142° |
| 2026-05-07 17:46 | 39.68149 | 25.50722 | 35118 ft | 491 kts | 142° |
| 2026-05-07 17:47 | 39.62966 | 25.56564 | 35121 ft | 492 kts | 142° |
| 2026-05-07 17:47 | 39.57824 | 25.62359 | 35123 ft | 492 kts | 142° |
| 2026-05-07 17:48 | 39.52682 | 25.68160 | 35127 ft | 484 kts | 142° |
| 2026-05-07 17:48 | 39.47577 | 25.73884 | 35128 ft | 484 kts | 142° |
| 2026-05-07 17:49 | 39.42462 | 25.79577 | 35121 ft | 487 kts | 142° |
| 2026-05-07 17:49 | 39.37328 | 25.85313 | 35126 ft | 490 kts | 142° |
| 2026-05-07 17:50 | 39.32225 | 25.91023 | 35128 ft | 483 kts | 142° |
| 2026-05-07 17:50 | 39.27072 | 25.96704 | 35140 ft | 488 kts | 143° |
| 2026-05-07 17:51 | 39.21853 | 26.02272 | 35142 ft | 488 kts | 143° |
| 2026-05-07 17:51 | 39.16688 | 26.07812 | 34381 ft | 485 kts | 143° |
| 2026-05-07 17:52 | 39.14065 | 26.10612 | 33222 ft | 491 kts | 143° |
| 2026-05-07 17:52 | 39.11413 | 26.13447 | 32188 ft | 494 kts | 142° |
| 2026-05-07 17:52 | 39.08777 | 26.16266 | 31347 ft | 491 kts | 142° |
| 2026-05-07 17:52 | 39.06146 | 26.19076 | 30501 ft | 488 kts | 142° |
| 2026-05-07 17:53 | 39.03565 | 26.21829 | 29502 ft | 487 kts | 142° |
| 2026-05-07 17:53 | 39.00937 | 26.24632 | 28195 ft | 490 kts | 142° |
| 2026-05-07 17:53 | 38.98288 | 26.27454 | 26856 ft | 495 kts | 141° |
| 2026-05-07 17:53 | 38.95659 | 26.30255 | 25757 ft | 496 kts | 141° |
| 2026-05-07 17:54 | 38.93003 | 26.33080 | 24970 ft | 490 kts | 141° |
| 2026-05-07 17:54 | 38.90392 | 26.35849 | 24252 ft | 483 kts | 141° |
| 2026-05-07 17:54 | 38.87845 | 26.38547 | 23537 ft | 476 kts | 141° |
| 2026-05-07 17:54 | 38.85298 | 26.41249 | 22757 ft | 468 kts | 141° |
| 2026-05-07 17:55 | 38.82810 | 26.43924 | 22009 ft | 461 kts | 140° |
| 2026-05-07 17:55 | 38.80438 | 26.46582 | 21297 ft | 454 kts | 140° |
| 2026-05-07 17:55 | 38.78070 | 26.49234 | 20599 ft | 447 kts | 140° |
| 2026-05-07 17:55 | 38.75730 | 26.51855 | 19940 ft | 443 kts | 140° |
| 2026-05-07 17:56 | 38.73404 | 26.54462 | 19299 ft | 441 kts | 140° |
| 2026-05-07 17:56 | 38.71110 | 26.57021 | 18684 ft | 439 kts | 140° |
| 2026-05-07 17:56 | 38.68809 | 26.59592 | 18040 ft | 438 kts | 140° |
| 2026-05-07 17:56 | 38.66537 | 26.62124 | 17379 ft | 436 kts | 140° |
| 2026-05-07 17:57 | 38.64244 | 26.64678 | 16725 ft | 434 kts | 140° |
| 2026-05-07 17:57 | 38.62736 | 26.66358 | 16306 ft | 433 kts | 140° |
| 2026-05-07 17:57 | 38.59735 | 26.69706 | 15480 ft | 430 kts | 140° |
| 2026-05-07 17:57 | 38.57489 | 26.72215 | 14875 ft | 427 kts | 140° |
| 2026-05-07 17:58 | 38.55252 | 26.74706 | 14264 ft | 423 kts | 140° |
| 2026-05-07 17:58 | 38.53038 | 26.77164 | 13616 ft | 415 kts | 140° |
| 2026-05-07 17:58 | 38.50900 | 26.79536 | 13006 ft | 407 kts | 140° |
| 2026-05-07 17:58 | 38.48777 | 26.81891 | 12427 ft | 398 kts | 140° |
| 2026-05-07 17:59 | 38.46724 | 26.84165 | 11842 ft | 390 kts | 140° |
| 2026-05-07 17:59 | 38.44691 | 26.86415 | 11436 ft | 379 kts | 140° |
| 2026-05-07 17:59 | 38.42734 | 26.88582 | 11178 ft | 364 kts | 139° |
| 2026-05-07 17:59 | 38.40875 | 26.90642 | 10973 ft | 350 kts | 139° |
| 2026-05-07 18:00 | 38.39075 | 26.92630 | 10794 ft | 336 kts | 139° |
| 2026-05-07 18:00 | 38.37332 | 26.94557 | 10633 ft | 323 kts | 139° |
| 2026-05-07 18:00 | 38.35678 | 26.96380 | 10486 ft | 311 kts | 139° |
| 2026-05-07 18:00 | 38.34063 | 26.98162 | 10253 ft | 303 kts | 139° |
| 2026-05-07 18:01 | 38.32496 | 26.99965 | 9805 ft | 301 kts | 133° |
| 2026-05-07 18:01 | 38.31463 | 27.02224 | 9360 ft | 298 kts | 106° |
| 2026-05-07 18:01 | 38.31032 | 27.04798 | 8940 ft | 295 kts | 99° |
| 2026-05-07 18:01 | 38.30695 | 27.07348 | 8525 ft | 293 kts | 99° |
| 2026-05-07 18:02 | 38.29990 | 27.12417 | 7795 ft | 287 kts | 101° |
| 2026-05-07 18:02 | 38.29262 | 27.14748 | 7423 ft | 283 kts | 125° |
| 2026-05-07 18:02 | 38.27796 | 27.16350 | 7069 ft | 283 kts | 155° |
| 2026-05-07 18:03 | 38.25911 | 27.17054 | 6727 ft | 283 kts | 168° |
| 2026-05-07 18:03 | 38.23972 | 27.17516 | 6373 ft | 282 kts | 169° |
| 2026-05-07 18:03 | 38.22054 | 27.17977 | 6024 ft | 278 kts | 168° |
| 2026-05-07 18:03 | 38.20185 | 27.18441 | 5696 ft | 277 kts | 168° |
| 2026-05-07 18:04 | 38.18291 | 27.18925 | 5360 ft | 277 kts | 168° |
| 2026-05-07 18:04 | 38.16449 | 27.19559 | 5049 ft | 275 kts | 154° |
| 2026-05-07 18:04 | 38.14796 | 27.20764 | 4727 ft | 271 kts | 152° |
| 2026-05-07 18:04 | 38.13132 | 27.21875 | 4381 ft | 268 kts | 150° |
| 2026-05-07 18:05 | 38.11675 | 27.23271 | 4039 ft | 265 kts | 137° |
| 2026-05-07 18:05 | 38.10567 | 27.25110 | 3878 ft | 253 kts | 118° |
| 2026-05-07 18:05 | 38.09793 | 27.27013 | 3851 ft | 236 kts | 116° |
| 2026-05-07 18:05 | 38.08832 | 27.28584 | 3841 ft | 216 kts | 145° |
| 2026-05-07 18:06 | 38.07512 | 27.29196 | 3896 ft | 199 kts | 178° |
| 2026-05-07 18:06 | 38.06200 | 27.28775 | 3906 ft | 196 kts | 213° |
| 2026-05-07 18:06 | 38.05339 | 27.27515 | 3903 ft | 192 kts | 248° |
| 2026-05-07 18:06 | 38.05126 | 27.25860 | 3913 ft | 190 kts | 269° |
| 2026-05-07 18:07 | 38.05307 | 27.24247 | 3887 ft | 188 kts | 299° |
| 2026-05-07 18:07 | 38.06247 | 27.23126 | 3896 ft | 186 kts | 329° |
| 2026-05-07 18:07 | 38.07434 | 27.22441 | 3901 ft | 186 kts | 339° |
| 2026-05-07 18:07 | 38.08658 | 27.21945 | 3900 ft | 187 kts | 343° |
| 2026-05-07 18:08 | 38.09913 | 27.21519 | 3823 ft | 186 kts | 345° |
| 2026-05-07 18:08 | 38.11182 | 27.21128 | 3636 ft | 187 kts | 346° |
| 2026-05-07 18:08 | 38.12436 | 27.20750 | 3415 ft | 186 kts | 346° |
| 2026-05-07 18:08 | 38.13696 | 27.20371 | 3169 ft | 186 kts | 345° |
| 2026-05-07 18:09 | 38.14952 | 27.19994 | 2928 ft | 181 kts | 345° |
| 2026-05-07 18:09 | 38.16097 | 27.19651 | 2751 ft | 154 kts | 344° |
| 2026-05-07 18:09 | 38.17051 | 27.19364 | 2527 ft | 135 kts | 344° |
| 2026-05-07 18:09 | 38.17963 | 27.19090 | 2319 ft | 134 kts | 344° |
| 2026-05-07 18:10 | 38.18877 | 27.18821 | 2123 ft | 133 kts | 344° |
| 2026-05-07 18:10 | 38.19774 | 27.18561 | 1949 ft | 133 kts | 344° |
| 2026-05-07 18:10 | 38.20687 | 27.18293 | 1784 ft | 135 kts | 344° |
| 2026-05-07 18:10 | 38.21605 | 27.18003 | 1601 ft | 135 kts | 343° |
| 2026-05-07 18:11 | 38.22508 | 27.17709 | 1414 ft | 136 kts | 344° |
| 2026-05-07 18:11 | 38.23132 | 27.17539 | 1321 ft | 136 kts | 345° |
| 2026-05-07 18:11 | 38.24365 | 27.17151 | 1115 ft | 140 kts | 343° |
| 2026-05-07 18:11 | 38.25323 | 27.16853 | 939 ft | 141 kts | 346° |
| 2026-05-07 18:12 | 38.26270 | 27.16575 | 763 ft | 138 kts | 346° |
| 2026-05-07 18:12 | 38.27226 | 27.16304 | 592 ft | 143 kts | 347° |
| 2026-05-07 18:12 | 38.28178 | 27.16014 | 446 ft | 137 kts | 347° |
| 2026-05-07 18:12 | 38.28996 | 27.15772 | 414 ft | 97 kts | 347° |
| 2026-05-07 18:13 | 38.29455 | 27.15632 | 414 ft | 29 kts | 348° |
| 2026-05-07 18:13 | 38.29651 | 27.15571 | 422 ft | 28 kts | 345° |
| 2026-05-07 18:13 | 38.29812 | 27.15455 | 424 ft | 10 kts | 322° |
| 2026-05-07 18:13 | 38.29856 | 27.15408 | 419 ft | 5 kts | 317° |
| 2026-05-07 18:14 | 38.29885 | 27.15373 | 419 ft | 6 kts | 317° |
| 2026-05-07 18:14 | 38.29904 | 27.15323 | 420 ft | 8 kts | 281° |
| 2026-05-07 18:14 | 38.29951 | 27.15273 | 417 ft | 10 kts | 325° |
| 2026-05-07 18:14 | 38.29984 | 27.15187 | 422 ft | 13 kts | 257° |
| 2026-05-07 18:15 | 38.29962 | 27.15068 | 411 ft | 15 kts | 256° |
| 2026-05-07 18:15 | 38.29922 | 27.14963 | 417 ft | 14 kts | 186° |
| 2026-05-07 18:15 | 38.29818 | 27.14987 | 415 ft | 17 kts | 165° |
| 2026-05-07 18:15 | 38.29699 | 27.15023 | 412 ft | 17 kts | 167° |
| 2026-05-07 18:16 | 38.29611 | 27.15048 | 409 ft | 13 kts | 166° |
| 2026-05-07 18:16 | 38.29597 | 27.15053 | 411 ft | 0 kts | 165° |
| 2026-05-07 18:16 | 38.29595 | 27.15053 | 411 ft | 1 kts | 165° |
| 2026-05-07 18:16 | 38.29583 | 27.15057 | 412 ft | 0 kts | 165° |
| 2026-05-07 18:17 | 38.29576 | 27.15060 | 415 ft | 2 kts | 165° |
| 2026-05-07 18:17 | 38.29550 | 27.15068 | 412 ft | 5 kts | 165° |
| 2026-05-07 18:17 | 38.29511 | 27.15080 | 414 ft | 0 kts | 165° |
| 2026-05-07 18:17 | 38.29509 | 27.15081 | 415 ft | 1 kts | 165° |
| 2026-05-07 18:18 | 38.29498 | 27.15084 | 412 ft | 3 kts | 171° |
| 2026-05-07 18:18 | 38.29466 | 27.15091 | 415 ft | 1 kts | 171° |
| 2026-05-07 18:18 | 38.29464 | 27.15091 | 416 ft | 1 kts | 171° |
| 2026-05-07 18:18 | 38.29450 | 27.15094 | 414 ft | 3 kts | 171° |
| 2026-05-07 18:19 | 38.29415 | 27.15079 | 417 ft | 0 kts | 242° |
| 2026-05-07 18:19 | 38.29415 | 27.15072 | 409 ft | 2 kts | 263° |
| 2026-05-07 18:19 | 38.29413 | 27.15062 | 412 ft | 0 kts | 256° |
| 2026-05-07 18:19 | 38.29410 | 27.15045 | 417 ft | 3 kts | 256° |
| 2026-05-07 18:20 | 38.29407 | 27.15031 | 417 ft | 0 kts | 256° |